sensor_id;sensor_type;location;lat;lon;timestamp;noise_LAeq;noise_LA_min;noise_LA_max;noise_LA01;noise_LA95
48967;Laerm;46511;53.148;8.204;2022-09-09T00:01:54;44.89;40.98;52.71;;
48967;Laerm;46511;53.148;8.204;2022-09-09T00:04:33;67.06;41.53;82.21;;
48967;Laerm;46511;53.148;8.204;2022-09-09T00:07:12;50.47;37.70;66.00;;
48967;Laerm;46511;53.148;8.204;2022-09-09T00:10:14;42.60;39.58;45.77;;
48967;Laerm;46511;53.148;8.204;2022-09-09T00:16:04;43.62;38.81;54.14;;
48967;Laerm;46511;53.148;8.204;2022-09-09T00:22:03;42.91;38.52;50.29;;
48967;Laerm;46511;53.148;8.204;2022-09-09T00:25:26;43.05;38.05;48.49;;
48967;Laerm;46511;53.148;8.204;2022-09-09T00:27:45;42.30;38.52;46.84;;
48967;Laerm;46511;53.148;8.204;2022-09-09T00:30:20;41.68;36.91;45.17;;
48967;Laerm;46511;53.148;8.204;2022-09-09T00:32:57;41.60;37.88;47.28;;
48967;Laerm;46511;53.148;8.204;2022-09-09T00:35:33;41.87;37.88;47.79;;
48967;Laerm;46511;53.148;8.204;2022-09-09T00:38:13;42.46;37.88;47.34;;
48967;Laerm;46511;53.148;8.204;2022-09-09T00:43:35;43.16;38.67;53.79;;
48967;Laerm;46511;53.148;8.204;2022-09-09T00:46:37;42.89;38.05;49.45;;
48967;Laerm;46511;53.148;8.204;2022-09-09T00:55:23;43.24;38.95;49.69;;
48967;Laerm;46511;53.148;8.204;2022-09-09T00:57:58;44.13;38.21;52.02;;
48967;Laerm;46511;53.148;8.204;2022-09-09T01:00:37;42.28;38.67;47.38;;
48967;Laerm;46511;53.148;8.204;2022-09-09T01:03:33;44.34;38.67;56.87;;
48967;Laerm;46511;53.148;8.204;2022-09-09T01:06:30;42.62;37.70;50.98;;
48967;Laerm;46511;53.148;8.204;2022-09-09T01:09:10;43.31;37.70;50.84;;
48967;Laerm;46511;53.148;8.204;2022-09-09T01:22:52;42.94;38.81;52.86;;
48967;Laerm;46511;53.148;8.204;2022-09-09T01:28:20;42.97;38.18;52.39;;
48967;Laerm;46511;53.148;8.204;2022-09-09T01:30:55;43.75;39.58;54.15;;
48967;Laerm;46511;53.148;8.204;2022-09-09T01:33:27;51.69;38.05;67.00;;
48967;Laerm;46511;53.148;8.204;2022-09-09T01:36:03;44.49;38.95;59.46;;
48967;Laerm;46511;53.148;8.204;2022-09-09T01:38:37;43.41;38.95;49.02;;
48967;Laerm;46511;53.148;8.204;2022-09-09T01:41:09;48.26;41.30;57.20;;
48967;Laerm;46511;53.148;8.204;2022-09-09T01:43:35;44.81;41.75;52.51;;
48967;Laerm;46511;53.148;8.204;2022-09-09T01:46:07;42.97;39.46;51.39;;
48967;Laerm;46511;53.148;8.204;2022-09-09T01:48:40;43.62;40.33;48.88;;
48967;Laerm;46511;53.148;8.204;2022-09-09T01:51:12;42.95;40.33;46.13;;
48967;Laerm;46511;53.148;8.204;2022-09-09T01:53:44;43.24;39.34;50.24;;
48967;Laerm;46511;53.148;8.204;2022-09-09T01:57:10;43.18;39.81;48.23;;
48967;Laerm;46511;53.148;8.204;2022-09-09T01:59:45;44.80;40.80;51.46;;
48967;Laerm;46511;53.148;8.204;2022-09-09T02:03:13;45.74;41.22;51.91;;
48967;Laerm;46511;53.148;8.204;2022-09-09T02:05:26;44.78;40.08;52.26;;
48967;Laerm;46511;53.148;8.204;2022-09-09T02:08:55;48.92;40.53;63.39;;
48967;Laerm;46511;53.148;8.204;2022-09-09T02:11:16;43.55;39.21;53.96;;
48967;Laerm;46511;53.148;8.204;2022-09-09T02:13:49;44.63;41.14;50.60;;
48967;Laerm;46511;53.148;8.204;2022-09-09T02:16:29;44.29;41.06;54.01;;
48967;Laerm;46511;53.148;8.204;2022-09-09T02:19:12;44.10;40.33;54.25;;
48967;Laerm;46511;53.148;8.204;2022-09-09T02:21:46;48.09;41.06;61.67;;
48967;Laerm;46511;53.148;8.204;2022-09-09T02:24:18;52.93;40.53;65.54;;
48967;Laerm;46511;53.148;8.204;2022-09-09T02:26:52;45.24;41.89;54.05;;
48967;Laerm;46511;53.148;8.204;2022-09-09T02:29:35;44.88;40.80;57.65;;
48967;Laerm;46511;53.148;8.204;2022-09-09T02:32:06;44.94;41.75;50.62;;
48967;Laerm;46511;53.148;8.204;2022-09-09T02:34:51;44.40;40.98;53.60;;
48967;Laerm;46511;53.148;8.204;2022-09-09T02:37:22;49.48;40.71;62.07;;
48967;Laerm;46511;53.148;8.204;2022-09-09T02:39:56;44.96;40.62;52.09;;
48967;Laerm;46511;53.148;8.204;2022-09-09T02:42:27;52.69;41.96;65.15;;
48967;Laerm;46511;53.148;8.204;2022-09-09T02:44:58;45.20;41.61;49.80;;
48967;Laerm;46511;53.148;8.204;2022-09-09T02:47:34;44.35;40.71;51.70;;
48967;Laerm;46511;53.148;8.204;2022-09-09T02:50:17;44.81;40.98;56.04;;
48967;Laerm;46511;53.148;8.204;2022-09-09T02:53:06;50.29;41.30;64.88;;
48967;Laerm;46511;53.148;8.204;2022-09-09T02:55:44;44.93;41.75;51.26;;
48967;Laerm;46511;53.148;8.204;2022-09-09T02:58:18;45.34;42.09;55.52;;
48967;Laerm;46511;53.148;8.204;2022-09-09T03:00:51;50.53;41.82;64.51;;
48967;Laerm;46511;53.148;8.204;2022-09-09T03:03:22;45.50;42.03;55.35;;
48967;Laerm;46511;53.148;8.204;2022-09-09T03:05:54;44.64;41.68;49.10;;
48967;Laerm;46511;53.148;8.204;2022-09-09T03:08:25;45.61;41.75;53.45;;
48967;Laerm;46511;53.148;8.204;2022-09-09T03:10:59;45.43;42.47;52.23;;
48967;Laerm;46511;53.148;8.204;2022-09-09T03:13:32;45.95;42.41;51.96;;
48967;Laerm;46511;53.148;8.204;2022-09-09T03:16:03;46.40;42.76;56.57;;
48967;Laerm;46511;53.148;8.204;2022-09-09T03:18:35;45.77;43.39;51.53;;
48967;Laerm;46511;53.148;8.204;2022-09-09T03:21:07;45.84;43.19;56.21;;
48967;Laerm;46511;53.148;8.204;2022-09-09T03:23:38;54.53;42.88;67.33;;
48967;Laerm;46511;53.148;8.204;2022-09-09T03:26:09;56.19;43.44;70.96;;
48967;Laerm;46511;53.148;8.204;2022-09-09T03:28:41;45.73;42.98;53.66;;
48967;Laerm;46511;53.148;8.204;2022-09-09T03:31:13;51.41;42.93;65.83;;
48967;Laerm;46511;53.148;8.204;2022-09-09T03:33:44;46.93;43.86;51.59;;
48967;Laerm;46511;53.148;8.204;2022-09-09T03:36:16;50.14;44.34;62.29;;
48967;Laerm;46511;53.148;8.204;2022-09-09T03:38:48;46.73;43.77;52.74;;
48967;Laerm;46511;53.148;8.204;2022-09-09T03:41:19;51.89;44.58;64.94;;
48967;Laerm;46511;53.148;8.204;2022-09-09T03:43:52;50.28;43.81;64.93;;
48967;Laerm;46511;53.148;8.204;2022-09-09T03:46:21;51.27;42.41;65.05;;
48967;Laerm;46511;53.148;8.204;2022-09-09T03:48:52;45.58;42.03;54.17;;
48967;Laerm;46511;53.148;8.204;2022-09-09T03:51:23;46.49;43.68;59.77;;
48967;Laerm;46511;53.148;8.204;2022-09-09T03:53:55;46.48;43.90;51.68;;
48967;Laerm;46511;53.148;8.204;2022-09-09T03:56:27;49.30;43.99;63.10;;
48967;Laerm;46511;53.148;8.204;2022-09-09T03:58:59;46.67;42.93;55.79;;
48967;Laerm;46511;53.148;8.204;2022-09-09T04:01:30;46.07;43.24;51.12;;
48967;Laerm;46511;53.148;8.204;2022-09-09T04:03:56;50.13;43.58;62.38;;
48967;Laerm;46511;53.148;8.204;2022-09-09T04:06:29;49.38;43.58;61.67;;
48967;Laerm;46511;53.148;8.204;2022-09-09T04:09:01;49.94;44.04;63.40;;
48967;Laerm;46511;53.148;8.204;2022-09-09T04:11:34;65.64;44.83;76.94;;
48967;Laerm;46511;53.148;8.204;2022-09-09T04:14:05;48.30;44.87;63.51;;
48967;Laerm;46511;53.148;8.204;2022-09-09T04:16:37;51.41;44.73;63.40;;
48967;Laerm;46511;53.148;8.204;2022-09-09T04:19:08;52.06;44.43;64.22;;
48967;Laerm;46511;53.148;8.204;2022-09-09T04:21:40;52.51;44.62;64.72;;
48967;Laerm;46511;53.148;8.204;2022-09-09T04:24:12;47.38;44.39;53.82;;
48967;Laerm;46511;53.148;8.204;2022-09-09T04:26:43;51.87;44.07;64.20;;
48967;Laerm;46511;53.148;8.204;2022-09-09T04:29:09;51.62;45.54;64.51;;
48967;Laerm;46511;53.148;8.204;2022-09-09T04:31:41;55.94;43.90;68.04;;
48967;Laerm;46511;53.148;8.204;2022-09-09T04:34:12;48.35;44.90;57.49;;
48967;Laerm;46511;53.148;8.204;2022-09-09T04:36:44;54.24;44.43;67.71;;
48967;Laerm;46511;53.148;8.204;2022-09-09T04:39:15;50.36;44.31;63.05;;
48967;Laerm;46511;53.148;8.204;2022-09-09T04:41:41;57.58;44.15;69.84;;
48967;Laerm;46511;53.148;8.204;2022-09-09T04:44:08;50.85;45.20;65.13;;
48967;Laerm;46511;53.148;8.204;2022-09-09T04:46:39;52.70;46.02;63.46;;
48967;Laerm;46511;53.148;8.204;2022-09-09T04:49:11;52.29;45.11;63.84;;
48967;Laerm;46511;53.148;8.204;2022-09-09T04:51:43;56.54;45.42;67.25;;
48967;Laerm;46511;53.148;8.204;2022-09-09T04:54:14;63.46;45.36;75.36;;
48967;Laerm;46511;53.148;8.204;2022-09-09T04:56:45;56.28;44.65;70.67;;
48967;Laerm;46511;53.148;8.204;2022-09-09T04:59:17;53.63;44.76;67.03;;
48967;Laerm;46511;53.148;8.204;2022-09-09T05:01:48;55.02;44.83;67.53;;
48967;Laerm;46511;53.148;8.204;2022-09-09T05:04:21;54.48;45.36;65.32;;
48967;Laerm;46511;53.148;8.204;2022-09-09T05:06:52;54.45;44.47;67.27;;
48967;Laerm;46511;53.148;8.204;2022-09-09T05:09:19;55.86;45.33;73.21;;
48967;Laerm;46511;53.148;8.204;2022-09-09T05:11:45;50.10;45.42;60.44;;
48967;Laerm;46511;53.148;8.204;2022-09-09T05:14:17;57.22;45.30;70.53;;
48967;Laerm;46511;53.148;8.204;2022-09-09T05:16:48;54.17;45.27;67.02;;
48967;Laerm;46511;53.148;8.204;2022-09-09T05:19:20;55.01;45.63;65.79;;
48967;Laerm;46511;53.148;8.204;2022-09-09T05:21:51;55.31;45.99;68.61;;
48967;Laerm;46511;53.148;8.204;2022-09-09T05:24:23;57.22;46.45;66.63;;
48967;Laerm;46511;53.148;8.204;2022-09-09T05:26:54;56.49;46.84;64.68;;
48967;Laerm;46511;53.148;8.204;2022-09-09T05:29:29;56.83;45.48;72.72;;
48967;Laerm;46511;53.148;8.204;2022-09-09T05:32:00;54.66;47.54;66.21;;
48967;Laerm;46511;53.148;8.204;2022-09-09T05:34:27;56.91;46.48;73.71;;
48967;Laerm;46511;53.148;8.204;2022-09-09T05:36:58;59.40;46.35;74.13;;
48967;Laerm;46511;53.148;8.204;2022-09-09T05:39:29;56.35;45.77;80.63;;
48967;Laerm;46511;53.148;8.204;2022-09-09T05:42:01;61.15;47.18;79.18;;
48967;Laerm;46511;53.148;8.204;2022-09-09T05:44:33;58.67;47.14;72.04;;
48967;Laerm;46511;53.148;8.204;2022-09-09T05:47:05;67.52;59.18;80.72;;
48967;Laerm;46511;53.148;8.204;2022-09-09T05:49:36;63.50;59.83;71.42;;
48967;Laerm;46511;53.148;8.204;2022-09-09T05:52:08;64.45;59.89;83.23;;
48967;Laerm;46511;53.148;8.204;2022-09-09T05:54:40;65.70;60.03;74.31;;
48967;Laerm;46511;53.148;8.204;2022-09-09T05:57:13;65.02;60.18;77.25;;
48967;Laerm;46511;53.148;8.204;2022-09-09T05:59:44;63.82;59.66;70.33;;
48967;Laerm;46511;53.148;8.204;2022-09-09T06:02:15;63.89;60.15;70.87;;
48967;Laerm;46511;53.148;8.204;2022-09-09T06:04:47;65.40;60.30;72.65;;
48967;Laerm;46511;53.148;8.204;2022-09-09T06:07:18;64.17;60.22;70.06;;
48967;Laerm;46511;53.148;8.204;2022-09-09T06:09:50;64.27;60.40;70.56;;
48967;Laerm;46511;53.148;8.204;2022-09-09T06:12:22;64.29;59.45;69.68;;
48967;Laerm;46511;53.148;8.204;2022-09-09T06:14:53;63.56;59.94;71.09;;
48967;Laerm;46511;53.148;8.204;2022-09-09T06:17:25;63.30;59.86;75.04;;
48967;Laerm;46511;53.148;8.204;2022-09-09T06:19:56;63.17;59.94;72.13;;
48967;Laerm;46511;53.148;8.204;2022-09-09T06:22:28;64.75;60.03;71.78;;
48967;Laerm;46511;53.148;8.204;2022-09-09T06:24:59;64.46;59.29;74.04;;
48967;Laerm;46511;53.148;8.204;2022-09-09T06:27:27;64.53;60.24;73.38;;
48967;Laerm;46511;53.148;8.204;2022-09-09T06:29:59;65.15;59.22;80.13;;
48967;Laerm;46511;53.148;8.204;2022-09-09T06:32:31;63.49;59.02;72.50;;
48967;Laerm;46511;53.148;8.204;2022-09-09T06:35:05;66.94;59.69;77.26;;
48967;Laerm;46511;53.148;8.204;2022-09-09T06:37:37;68.96;59.96;77.43;;
48967;Laerm;46511;53.148;8.204;2022-09-09T06:40:09;69.63;59.91;76.75;;
48967;Laerm;46511;53.148;8.204;2022-09-09T06:42:40;65.53;59.80;85.67;;
48967;Laerm;46511;53.148;8.204;2022-09-09T06:45:11;70.23;60.09;80.71;;
48967;Laerm;46511;53.148;8.204;2022-09-09T06:47:43;67.49;59.66;77.88;;
48967;Laerm;46511;53.148;8.204;2022-09-09T06:50:14;70.71;60.55;78.30;;
48967;Laerm;46511;53.148;8.204;2022-09-09T06:52:47;68.30;60.01;79.06;;
48967;Laerm;46511;53.148;8.204;2022-09-09T06:55:18;65.37;59.76;78.36;;
48967;Laerm;46511;53.148;8.204;2022-09-09T06:57:50;64.82;59.59;75.37;;
48967;Laerm;46511;53.148;8.204;2022-09-09T07:00:22;72.30;59.69;85.91;;
48967;Laerm;46511;53.148;8.204;2022-09-09T07:02:53;69.90;59.86;85.59;;
48967;Laerm;46511;53.148;8.204;2022-09-09T07:05:24;69.64;59.79;85.63;;
48967;Laerm;46511;53.148;8.204;2022-09-09T07:07:57;65.37;59.82;82.42;;
48967;Laerm;46511;53.148;8.204;2022-09-09T07:10:29;63.74;59.92;72.75;;
48967;Laerm;46511;53.148;8.204;2022-09-09T07:13:00;63.89;59.73;72.92;;
48967;Laerm;46511;53.148;8.204;2022-09-09T07:15:33;63.12;59.21;73.61;;
48967;Laerm;46511;53.148;8.204;2022-09-09T07:18:02;63.37;59.31;70.70;;
48967;Laerm;46511;53.148;8.204;2022-09-09T07:20:34;63.18;59.93;69.19;;
48967;Laerm;46511;53.148;8.204;2022-09-09T07:23:00;63.89;59.46;72.60;;
48967;Laerm;46511;53.148;8.204;2022-09-09T07:25:31;65.81;60.32;76.71;;
48967;Laerm;46511;53.148;8.204;2022-09-09T07:28:02;65.78;62.34;84.06;;
48967;Laerm;46511;53.148;8.204;2022-09-09T07:30:34;63.03;59.45;69.45;;
48967;Laerm;46511;53.148;8.204;2022-09-09T07:33:05;62.82;42.41;68.57;;
48967;Laerm;46511;53.148;8.204;2022-09-09T07:35:32;54.38;42.35;67.72;;
48967;Laerm;46511;53.148;8.204;2022-09-09T07:38:04;53.30;42.22;72.64;;
48967;Laerm;46511;53.148;8.204;2022-09-09T07:40:37;60.33;41.53;76.46;;
48967;Laerm;46511;53.148;8.204;2022-09-09T07:43:09;52.36;42.29;65.99;;
48967;Laerm;46511;53.148;8.204;2022-09-09T07:45:40;54.79;41.30;68.16;;
48967;Laerm;46511;53.148;8.204;2022-09-09T07:48:13;57.46;41.82;67.49;;
48967;Laerm;46511;53.148;8.204;2022-09-09T07:50:44;54.57;42.47;68.25;;
48967;Laerm;46511;53.148;8.204;2022-09-09T07:53:15;54.13;41.22;65.90;;
48967;Laerm;46511;53.148;8.204;2022-09-09T07:55:46;59.27;45.11;76.45;;
48967;Laerm;46511;53.148;8.204;2022-09-09T07:58:18;53.75;44.90;65.01;;
48967;Laerm;46511;53.148;8.204;2022-09-09T08:00:49;56.34;44.42;67.54;;
48967;Laerm;46511;53.148;8.204;2022-09-09T08:03:20;57.97;42.59;70.06;;
48967;Laerm;46511;53.148;8.204;2022-09-09T08:05:53;53.54;41.75;71.19;;
48967;Laerm;46511;53.148;8.204;2022-09-09T08:08:19;55.03;41.68;66.86;;
48967;Laerm;46511;53.148;8.204;2022-09-09T08:10:50;57.92;42.41;68.09;;
48967;Laerm;46511;53.148;8.204;2022-09-09T08:13:23;56.09;40.89;67.21;;
48967;Laerm;46511;53.148;8.204;2022-09-09T08:15:54;49.96;41.68;63.15;;
48967;Laerm;46511;53.148;8.204;2022-09-09T08:18:26;59.79;41.82;71.01;;
48967;Laerm;46511;53.148;8.204;2022-09-09T08:23:41;58.61;40.03;69.63;;
48967;Laerm;46511;53.148;8.204;2022-09-09T08:26:15;58.82;41.38;77.19;;
48967;Laerm;46511;53.148;8.204;2022-09-09T08:28:46;55.17;42.59;71.46;;
48967;Laerm;46511;53.148;8.204;2022-09-09T08:31:20;57.21;41.46;71.55;;
48967;Laerm;46511;53.148;8.204;2022-09-09T08:33:52;53.88;40.62;64.89;;
48967;Laerm;46511;53.148;8.204;2022-09-09T08:36:26;58.27;41.53;70.27;;
48967;Laerm;46511;53.148;8.204;2022-09-09T08:38:57;58.11;41.75;68.80;;
48967;Laerm;46511;53.148;8.204;2022-09-09T08:41:51;58.82;41.46;77.89;;
48967;Laerm;46511;53.148;8.204;2022-09-09T08:50:19;73.19;60.92;91.41;;
48967;Laerm;46511;53.148;8.204;2022-09-09T08:53:23;84.09;62.96;98.15;;
48967;Laerm;46511;53.148;8.204;2022-09-09T08:55:58;78.44;59.77;97.01;;
48967;Laerm;46511;53.148;8.204;2022-09-09T08:58:32;64.12;59.94;76.04;;
48967;Laerm;46511;53.148;8.204;2022-09-09T09:09:26;66.93;59.20;84.97;;
48967;Laerm;46511;53.148;8.204;2022-09-09T09:12:10;68.88;59.92;84.32;;
48967;Laerm;46511;53.148;8.204;2022-09-09T09:14:47;68.77;60.26;84.33;;
48967;Laerm;46511;53.148;8.204;2022-09-09T09:17:20;68.49;60.71;83.21;;
48967;Laerm;46511;53.148;8.204;2022-09-09T09:19:49;65.62;59.29;81.48;;
48967;Laerm;46511;53.148;8.204;2022-09-09T09:22:23;67.03;60.35;80.84;;
48967;Laerm;46511;53.148;8.204;2022-09-09T09:25:13;65.35;60.54;73.51;;
48967;Laerm;46511;53.148;8.204;2022-09-09T09:30:51;63.95;59.67;71.57;;
48967;Laerm;46511;53.148;8.204;2022-09-09T09:33:30;63.45;59.07;73.59;;
48967;Laerm;46511;53.148;8.204;2022-09-09T09:36:04;63.65;60.04;71.76;;
48967;Laerm;46511;53.148;8.204;2022-09-09T09:38:37;65.16;59.15;75.23;;
48967;Laerm;46511;53.148;8.204;2022-09-09T09:41:08;63.55;60.25;69.81;;
48967;Laerm;46511;53.148;8.204;2022-09-09T09:43:40;63.35;58.98;77.14;;
48967;Laerm;46511;53.148;8.204;2022-09-09T09:46:21;64.02;59.66;71.28;;
48967;Laerm;46511;53.148;8.204;2022-09-09T09:51:30;63.80;60.14;69.63;;
48967;Laerm;46511;53.148;8.204;2022-09-09T09:54:18;66.11;60.67;73.20;;
48967;Laerm;46511;53.148;8.204;2022-09-09T09:56:54;65.42;59.83;70.93;;
48967;Laerm;46511;53.148;8.204;2022-09-09T10:02:22;63.87;60.16;70.39;;
48967;Laerm;46511;53.148;8.204;2022-09-09T10:05:18;63.54;59.84;70.73;;
48967;Laerm;46511;53.148;8.204;2022-09-09T10:08:12;63.80;59.92;71.85;;
48967;Laerm;46511;53.148;8.204;2022-09-09T10:16:36;68.10;59.76;85.43;;
48967;Laerm;46511;53.148;8.204;2022-09-09T10:19:25;67.83;59.74;87.42;;
48967;Laerm;46511;53.148;8.204;2022-09-09T10:27:43;63.97;59.59;81.07;;
48967;Laerm;46511;53.148;8.204;2022-09-09T10:30:24;63.36;59.95;70.95;;
48967;Laerm;46511;53.148;8.204;2022-09-09T10:33:04;63.94;59.60;77.18;;
48967;Laerm;46511;53.148;8.204;2022-09-09T10:35:52;64.40;59.73;74.76;;
48967;Laerm;46511;53.148;8.204;2022-09-09T10:38:34;68.60;59.85;78.16;;
48967;Laerm;46511;53.148;8.204;2022-09-09T10:44:01;63.74;59.12;74.73;;
48967;Laerm;46511;53.148;8.204;2022-09-09T10:55:13;69.38;59.91;88.05;;
48967;Laerm;46511;53.148;8.204;2022-09-09T10:57:58;63.88;59.75;78.48;;
48967;Laerm;46511;53.148;8.204;2022-09-09T11:00:38;67.87;60.14;79.95;;
48967;Laerm;46511;53.148;8.204;2022-09-09T11:03:19;65.16;60.46;75.07;;
48967;Laerm;46511;53.148;8.204;2022-09-09T11:06:01;66.58;60.09;78.99;;
48967;Laerm;46511;53.148;8.204;2022-09-09T11:08:38;65.51;59.35;75.16;;
48967;Laerm;46511;53.148;8.204;2022-09-09T11:11:14;64.40;59.55;79.85;;
48967;Laerm;46511;53.148;8.204;2022-09-09T11:13:54;63.95;59.89;70.91;;
48967;Laerm;46511;53.148;8.204;2022-09-09T11:16:30;63.73;60.07;70.20;;
48967;Laerm;46511;53.148;8.204;2022-09-09T11:19:14;64.24;59.96;70.04;;
48967;Laerm;46511;53.148;8.204;2022-09-09T11:21:49;68.27;59.93;84.52;;
48967;Laerm;46511;53.148;8.204;2022-09-09T11:24:28;64.03;59.59;72.31;;
48967;Laerm;46511;53.148;8.204;2022-09-09T11:27:20;67.70;60.26;83.05;;
48967;Laerm;46511;53.148;8.204;2022-09-09T11:30:02;69.38;60.12;85.38;;
48967;Laerm;46511;53.148;8.204;2022-09-09T11:35:46;63.52;59.57;79.31;;
48967;Laerm;46511;53.148;8.204;2022-09-09T11:38:27;64.03;60.10;73.48;;
48967;Laerm;46511;53.148;8.204;2022-09-09T11:41:05;64.55;59.69;74.22;;
48967;Laerm;46511;53.148;8.204;2022-09-09T11:43:53;65.40;60.18;75.96;;
48967;Laerm;46511;53.148;8.204;2022-09-09T11:46:34;63.63;60.26;81.48;;
48967;Laerm;46511;53.148;8.204;2022-09-09T11:49:46;66.58;59.98;80.24;;
48967;Laerm;46511;53.148;8.204;2022-09-09T11:52:34;64.95;60.18;73.74;;
48967;Laerm;46511;53.148;8.204;2022-09-09T11:55:33;67.13;60.46;79.40;;
48967;Laerm;46511;53.148;8.204;2022-09-09T12:00:47;66.13;61.23;76.77;;
48967;Laerm;46511;53.148;8.204;2022-09-09T12:03:35;67.69;56.74;87.42;;
48967;Laerm;46511;53.148;8.204;2022-09-09T12:06:30;65.98;48.43;93.26;;
48967;Laerm;46511;53.148;8.204;2022-09-09T12:09:12;62.12;46.40;72.61;;
48967;Laerm;46511;53.148;8.204;2022-09-09T12:11:46;57.59;44.11;69.02;;
48967;Laerm;46511;53.148;8.204;2022-09-09T12:19:48;56.61;43.99;67.44;;
48967;Laerm;46511;53.148;8.204;2022-09-09T12:28:20;58.87;43.90;72.22;;
48967;Laerm;46511;53.148;8.204;2022-09-09T12:31:02;56.07;44.52;68.14;;
48967;Laerm;46511;53.148;8.204;2022-09-09T12:33:37;58.64;42.88;71.48;;
48967;Laerm;46511;53.148;8.204;2022-09-09T12:36:21;56.02;44.23;66.99;;
48967;Laerm;46511;53.148;8.204;2022-09-09T12:38:53;53.83;42.93;68.21;;
48967;Laerm;46511;53.148;8.204;2022-09-09T12:41:27;56.53;43.00;68.07;;
48967;Laerm;46511;53.148;8.204;2022-09-09T12:44:09;59.77;42.47;75.95;;
48967;Laerm;46511;53.148;8.204;2022-09-09T12:46:43;57.03;42.03;70.95;;
48967;Laerm;46511;53.148;8.204;2022-09-09T12:51:56;55.66;42.35;70.83;;
48967;Laerm;46511;53.148;8.204;2022-09-09T12:54:28;59.95;43.04;69.41;;
48967;Laerm;46511;53.148;8.204;2022-09-09T12:57:00;54.92;42.03;69.90;;
48967;Laerm;46511;53.148;8.204;2022-09-09T12:59:39;57.83;43.44;75.28;;
48967;Laerm;46511;53.148;8.204;2022-09-09T13:02:25;55.07;42.79;68.63;;
48967;Laerm;46511;53.148;8.204;2022-09-09T13:05:06;63.91;42.65;73.41;;
48967;Laerm;46511;53.148;8.204;2022-09-09T13:07:38;64.69;59.84;78.51;;
48967;Laerm;46511;53.148;8.204;2022-09-09T13:10:13;68.13;60.46;82.93;;
48967;Laerm;46511;53.148;8.204;2022-09-09T13:12:45;73.64;60.90;87.96;;
48967;Laerm;46511;53.148;8.204;2022-09-09T13:15:24;71.86;60.72;87.56;;
48967;Laerm;46511;53.148;8.204;2022-09-09T13:18:01;64.36;60.53;72.17;;
48967;Laerm;46511;53.148;8.204;2022-09-09T13:20:34;64.24;59.69;73.17;;
48967;Laerm;46511;53.148;8.204;2022-09-09T13:23:11;66.19;60.28;86.98;;
48967;Laerm;46511;53.148;8.204;2022-09-09T13:25:59;69.11;60.18;84.60;;
48967;Laerm;46511;53.148;8.204;2022-09-09T13:28:31;70.35;60.43;88.30;;
48967;Laerm;46511;53.148;8.204;2022-09-09T13:31:06;66.63;61.16;81.25;;
48967;Laerm;46511;53.148;8.204;2022-09-09T13:33:50;64.47;60.56;83.51;;
48967;Laerm;46511;53.148;8.204;2022-09-09T13:36:29;64.68;60.48;77.35;;
48967;Laerm;46511;53.148;8.204;2022-09-09T13:39:03;69.66;60.35;84.37;;
48967;Laerm;46511;53.148;8.204;2022-09-09T13:41:36;75.01;60.24;86.83;;
48967;Laerm;46511;53.148;8.204;2022-09-09T13:44:19;64.83;60.19;82.72;;
48967;Laerm;46511;53.148;8.204;2022-09-09T13:49:33;68.11;60.19;80.55;;
48967;Laerm;46511;53.148;8.204;2022-09-09T13:52:15;66.54;60.81;76.47;;
48967;Laerm;46511;53.148;8.204;2022-09-09T13:54:49;64.83;59.71;77.65;;
48967;Laerm;46511;53.148;8.204;2022-09-09T13:57:18;67.76;60.52;82.96;;
48967;Laerm;46511;53.148;8.204;2022-09-09T13:59:50;69.16;60.23;85.94;;
48967;Laerm;46511;53.148;8.204;2022-09-09T14:02:22;64.95;60.10;75.71;;
48967;Laerm;46511;53.148;8.204;2022-09-09T14:04:54;65.55;60.15;81.25;;
48967;Laerm;46511;53.148;8.204;2022-09-09T14:07:26;65.40;60.55;82.10;;
48967;Laerm;46511;53.148;8.204;2022-09-09T14:09:58;63.92;59.70;79.35;;
48967;Laerm;46511;53.148;8.204;2022-09-09T14:12:31;66.94;61.18;78.91;;
48967;Laerm;46511;53.148;8.204;2022-09-09T14:15:04;64.64;60.25;82.18;;
48967;Laerm;46511;53.148;8.204;2022-09-09T14:17:36;65.67;60.16;82.82;;
48967;Laerm;46511;53.148;8.204;2022-09-09T14:20:08;64.37;60.53;80.24;;
48967;Laerm;46511;53.148;8.204;2022-09-09T14:22:39;64.94;60.12;81.44;;
48967;Laerm;46511;53.148;8.204;2022-09-09T14:25:11;64.25;60.59;73.84;;
48967;Laerm;46511;53.148;8.204;2022-09-09T14:27:44;64.49;60.62;79.69;;
48967;Laerm;46511;53.148;8.204;2022-09-09T14:30:17;64.80;60.76;80.26;;
48967;Laerm;46511;53.148;8.204;2022-09-09T14:32:48;67.28;60.82;84.85;;
48967;Laerm;46511;53.148;8.204;2022-09-09T14:35:19;68.64;60.85;91.54;;
48967;Laerm;46511;53.148;8.204;2022-09-09T14:37:51;68.58;60.02;90.86;;
48967;Laerm;46511;53.148;8.204;2022-09-09T14:40:22;69.09;59.81;89.42;;
48967;Laerm;46511;53.148;8.204;2022-09-09T14:42:54;68.55;60.89;90.95;;
48967;Laerm;46511;53.148;8.204;2022-09-09T14:45:26;69.72;60.59;92.11;;
48967;Laerm;46511;53.148;8.204;2022-09-09T14:47:57;67.82;60.18;89.46;;
48967;Laerm;46511;53.148;8.204;2022-09-09T14:50:30;65.03;60.70;78.01;;
48967;Laerm;46511;53.148;8.204;2022-09-09T14:53:01;64.70;60.35;77.67;;
48967;Laerm;46511;53.148;8.204;2022-09-09T14:55:33;63.99;60.07;69.71;;
48967;Laerm;46511;53.148;8.204;2022-09-09T14:58:04;63.98;59.66;78.72;;
48967;Laerm;46511;53.148;8.204;2022-09-09T15:00:37;65.09;60.57;76.70;;
48967;Laerm;46511;53.148;8.204;2022-09-09T15:03:09;64.37;60.27;71.35;;
48967;Laerm;46511;53.148;8.204;2022-09-09T15:05:41;64.03;60.01;70.84;;
48967;Laerm;46511;53.148;8.204;2022-09-09T15:08:15;64.90;60.55;78.80;;
48967;Laerm;46511;53.148;8.204;2022-09-09T15:10:47;67.75;60.96;78.73;;
48967;Laerm;46511;53.148;8.204;2022-09-09T15:13:18;67.53;59.98;81.51;;
48967;Laerm;46511;53.148;8.204;2022-09-09T15:15:49;67.52;60.17;82.23;;
48967;Laerm;46511;53.148;8.204;2022-09-09T15:18:21;63.90;59.79;81.31;;
48967;Laerm;46511;53.148;8.204;2022-09-09T15:20:47;63.60;60.47;76.50;;
48967;Laerm;46511;53.148;8.204;2022-09-09T15:23:19;64.87;60.42;77.54;;
48967;Laerm;46511;53.148;8.204;2022-09-09T15:25:54;68.64;59.64;83.21;;
48967;Laerm;46511;53.148;8.204;2022-09-09T15:28:26;70.33;60.64;85.10;;
48967;Laerm;46511;53.148;8.204;2022-09-09T15:30:57;66.57;60.26;82.96;;
48967;Laerm;46511;53.148;8.204;2022-09-09T15:33:29;67.47;61.07;79.04;;
48967;Laerm;46511;53.148;8.204;2022-09-09T15:36:00;65.20;60.25;80.94;;
48967;Laerm;46511;53.148;8.204;2022-09-09T15:38:31;65.77;59.67;74.67;;
48967;Laerm;46511;53.148;8.204;2022-09-09T15:41:02;66.06;59.66;75.40;;
48967;Laerm;46511;53.148;8.204;2022-09-09T15:43:29;66.13;50.91;76.46;;
48967;Laerm;46511;53.148;8.204;2022-09-09T15:46:18;81.70;43.63;100.76;;
48967;Laerm;46511;53.148;8.204;2022-09-09T15:48:58;53.32;42.93;67.50;;
48967;Laerm;46511;53.148;8.204;2022-09-09T15:51:33;57.03;42.76;75.41;;
48967;Laerm;46511;53.148;8.204;2022-09-09T15:54:04;57.05;42.88;68.54;;
48967;Laerm;46511;53.148;8.204;2022-09-09T15:56:36;56.38;42.71;68.15;;
48967;Laerm;46511;53.148;8.204;2022-09-09T15:59:07;55.84;42.22;69.28;;
48967;Laerm;46511;53.148;8.204;2022-09-09T16:01:38;57.82;42.58;72.96;;
48967;Laerm;46511;53.148;8.204;2022-09-09T16:04:13;58.26;42.93;69.23;;
48967;Laerm;46511;53.148;8.204;2022-09-09T16:06:46;63.45;42.71;71.64;;
48967;Laerm;46511;53.148;8.204;2022-09-09T16:09:18;52.83;41.75;66.65;;